createdAt,value
2024-05-09T00:00:42.632Z,44.60
2024-05-09T00:03:12.293Z,45.00
2024-05-09T00:05:45.036Z,50.60
2024-05-09T00:08:14.364Z,47.40
2024-05-09T00:10:41.593Z,48.40
2024-05-09T00:13:11.299Z,49.60
2024-05-09T00:15:38.585Z,62.80
2024-05-09T00:18:08.677Z,49.40
2024-05-09T00:20:39.618Z,54.40
2024-05-09T00:23:12.436Z,54.40
2024-05-09T00:25:43.623Z,44.20
2024-05-09T00:28:14.039Z,54.20
2024-05-09T00:30:42.868Z,48.00
2024-05-09T00:33:10.774Z,49.00
2024-05-09T00:35:38.753Z,54.20
2024-05-09T00:38:05.718Z,45.20
2024-05-09T00:40:40.831Z,52.80
2024-05-09T00:43:13.414Z,49.40
2024-05-09T00:45:41.195Z,47.60
2024-05-09T00:48:10.181Z,55.80
2024-05-09T00:50:44.139Z,45.00
2024-05-09T00:53:12.670Z,45.20
2024-05-09T00:55:42.371Z,49.40
2024-05-09T00:58:12.191Z,38.60
2024-05-09T01:00:41.131Z,49.80
2024-05-09T01:03:12.872Z,53.20
2024-05-09T01:05:41.855Z,51.40
2024-05-09T01:08:10.101Z,52.20
2024-05-09T01:10:37.771Z,48.00
2024-05-09T01:13:07.703Z,48.40
2024-05-09T01:15:35.649Z,51.60
2024-05-09T01:18:08.129Z,48.80
2024-05-09T01:23:10.409Z,48.40
2024-05-09T01:25:37.514Z,51.80
2024-05-09T01:28:04.430Z,52.20
2024-05-09T01:30:35.929Z,54.40
2024-05-09T01:33:08.860Z,48.80
2024-05-09T01:35:41.791Z,48.80
2024-05-09T01:38:12.073Z,57.00
2024-05-09T01:40:40.253Z,56.60
2024-05-09T01:43:11.061Z,46.40
2024-05-09T01:45:41.584Z,56.20
2024-05-09T01:48:11.640Z,48.00
2024-05-09T01:50:41.700Z,45.40
2024-05-09T01:53:14.915Z,48.60
2024-05-09T01:55:44.985Z,50.00
2024-05-09T01:58:11.732Z,48.40
2024-05-09T02:00:42.790Z,53.20
2024-05-09T02:03:14.984Z,43.00
2024-05-09T02:05:45.100Z,46.40
2024-05-09T02:08:20.260Z,46.00
2024-05-09T02:10:51.013Z,48.20
2024-05-09T02:13:18.210Z,42.00
2024-05-09T02:15:52.371Z,44.80
2024-05-09T02:18:22.098Z,72.20
2024-05-09T02:20:48.923Z,46.80
2024-05-09T02:23:15.752Z,54.00
2024-05-09T02:25:44.645Z,48.40
2024-05-09T02:28:11.294Z,50.80
2024-05-09T02:30:41.940Z,41.80
2024-05-09T02:33:12.176Z,53.60
2024-05-09T02:35:41.133Z,49.00
2024-05-09T02:38:09.750Z,49.20
2024-05-09T02:40:40.040Z,47.60
2024-05-09T02:43:12.399Z,53.20
2024-05-09T02:45:42.040Z,47.60
2024-05-09T02:48:14.523Z,49.80
2024-05-09T02:50:41.836Z,53.60
2024-05-09T02:53:09.544Z,48.40
2024-05-09T02:55:37.307Z,45.60
2024-05-09T02:58:06.356Z,48.80
2024-05-09T03:00:38.941Z,45.00
2024-05-09T03:03:13.293Z,40.60
2024-05-09T03:05:42.758Z,51.60
2024-05-09T03:08:09.978Z,43.60
2024-05-09T03:10:39.777Z,51.80
2024-05-09T03:13:12.800Z,45.00
2024-05-09T03:15:40.639Z,63.00
2024-05-09T03:18:09.764Z,45.00
2024-05-09T03:20:37.283Z,47.20
2024-05-09T03:23:05.499Z,47.40
2024-05-09T03:25:34.966Z,55.00
2024-05-09T03:28:04.174Z,54.00
2024-05-09T03:30:39.524Z,48.40
2024-05-09T03:33:22.422Z,49.00
2024-05-09T03:35:51.378Z,51.40
2024-05-09T03:38:20.378Z,51.00
2024-05-09T03:40:52.491Z,42.60
2024-05-09T03:43:19.925Z,46.80
2024-05-09T03:45:50.564Z,46.80
2024-05-09T03:48:17.575Z,47.00
2024-05-09T03:50:44.417Z,47.80
2024-05-09T03:53:14.601Z,50.20
2024-05-09T03:55:41.730Z,55.60
2024-05-09T03:58:12.887Z,51.60
2024-05-09T04:00:40.383Z,43.00
2024-05-09T04:03:11.823Z,66.40
2024-05-09T04:05:45.176Z,44.60
2024-05-09T04:08:16.472Z,49.80
2024-05-09T04:10:43.140Z,46.40
2024-05-09T04:13:12.610Z,39.20
2024-05-09T04:15:39.489Z,55.00
2024-05-09T04:18:06.334Z,63.60
2024-05-09T04:20:38.404Z,45.80
2024-05-09T04:23:08.921Z,46.00
2024-05-09T04:25:41.808Z,49.40
2024-05-09T04:28:10.715Z,46.40
2024-05-09T04:30:40.080Z,39.80
2024-05-09T04:33:12.749Z,45.40
2024-05-09T04:35:44.875Z,50.80
2024-05-09T04:38:15.734Z,59.20
2024-05-09T04:40:44.829Z,49.40
2024-05-09T04:43:16.168Z,48.60
2024-05-09T04:45:45.267Z,53.80
2024-05-09T04:48:14.527Z,46.20
2024-05-09T04:50:43.928Z,49.00
2024-05-09T04:53:15.814Z,55.00
2024-05-09T04:55:47.304Z,50.40
2024-05-09T04:58:13.970Z,46.60
2024-05-09T05:00:43.045Z,48.00
2024-05-09T05:03:15.836Z,42.00
2024-05-09T05:05:46.257Z,40.00
2024-05-09T05:08:15.143Z,46.00
2024-05-09T05:10:43.069Z,47.00
2024-05-09T05:13:20.301Z,52.00
2024-05-09T05:15:52.515Z,46.80
2024-05-09T05:18:22.617Z,45.00
2024-05-09T05:20:51.768Z,48.00
2024-05-09T05:23:20.456Z,49.00
2024-05-09T05:25:48.518Z,43.40
2024-05-09T05:28:19.180Z,50.80
2024-05-09T05:30:46.541Z,43.40
2024-05-09T05:33:19.227Z,52.40
2024-05-09T05:35:46.423Z,51.40
2024-05-09T05:38:15.417Z,53.80
2024-05-09T05:43:17.442Z,47.00
2024-05-09T05:45:44.624Z,49.60
2024-05-09T05:48:16.223Z,45.20
2024-05-09T05:50:48.478Z,49.80
2024-05-09T05:53:15.165Z,50.20
2024-05-09T05:55:44.554Z,53.00
2024-05-09T05:58:12.126Z,49.80
2024-05-09T06:00:43.206Z,55.20
2024-05-09T06:03:11.559Z,51.60
2024-05-09T06:05:43.960Z,67.20
2024-05-09T06:08:11.158Z,53.00
2024-05-09T06:10:40.162Z,51.60
2024-05-09T06:13:11.496Z,58.40
2024-05-09T06:15:39.420Z,65.00
2024-05-09T06:18:07.552Z,51.60
2024-05-09T06:20:39.641Z,54.00
2024-05-09T06:23:11.263Z,57.80
2024-05-09T06:25:38.470Z,66.40
2024-05-09T06:28:05.699Z,59.20
2024-05-09T06:30:38.788Z,65.60
2024-05-09T06:33:10.628Z,62.40
2024-05-09T06:35:41.402Z,69.00
2024-05-09T06:38:11.601Z,62.20
2024-05-09T06:40:44.651Z,69.00
2024-05-09T06:43:17.130Z,54.20
2024-05-09T06:45:49.025Z,52.00
2024-05-09T06:48:18.403Z,54.60
2024-05-09T06:50:45.742Z,64.40
2024-05-09T06:53:15.793Z,53.20
2024-05-09T06:55:45.685Z,67.00
2024-05-09T06:58:12.703Z,56.20
2024-05-09T07:00:41.276Z,60.00
2024-05-09T07:03:18.115Z,54.60
2024-05-09T07:05:49.360Z,58.60
2024-05-09T07:08:17.337Z,65.20
2024-05-09T07:10:44.527Z,57.80
2024-05-09T07:13:13.059Z,63.20
2024-05-09T07:15:40.652Z,68.00
2024-05-09T07:18:15.559Z,60.80
2024-05-09T07:20:43.148Z,62.80
2024-05-09T07:23:13.130Z,60.60
2024-05-09T07:25:40.931Z,54.00
2024-05-09T07:28:14.586Z,63.00
2024-05-09T07:30:41.814Z,59.00
2024-05-09T07:33:08.678Z,62.20
2024-05-09T07:35:35.758Z,63.60
2024-05-09T07:38:02.591Z,58.80
2024-05-09T07:40:35.703Z,66.40
2024-05-09T07:43:08.405Z,65.20
2024-05-09T07:45:48.564Z,55.00
2024-05-09T07:52:37.269Z,65.60
2024-05-09T07:53:47.916Z,60.00
2024-05-09T07:56:22.311Z,66.80
2024-05-09T07:58:51.905Z,64.60
2024-05-09T08:01:19.355Z,66.80
2024-05-09T08:03:48.803Z,59.20
2024-05-09T08:06:15.680Z,67.00
2024-05-09T08:08:44.494Z,77.60
2024-05-09T08:11:11.155Z,63.20
2024-05-09T08:13:37.768Z,70.00
2024-05-09T08:16:04.722Z,63.20
2024-05-09T08:18:31.444Z,68.00
2024-05-09T08:20:58.680Z,63.20
2024-05-09T08:23:28.815Z,61.60
2024-05-09T08:25:57.944Z,61.00
2024-05-09T08:28:24.590Z,66.80
2024-05-09T08:30:51.273Z,61.20
2024-05-09T08:33:18.266Z,63.40
2024-05-09T08:35:45.024Z,68.00
2024-05-09T08:38:13.713Z,67.40
2024-05-09T08:40:43.721Z,63.00
2024-05-09T08:43:12.492Z,67.40
2024-05-09T08:45:43.628Z,66.80
2024-05-09T08:48:12.971Z,67.80
2024-05-09T08:50:43.108Z,66.20
2024-05-09T08:53:10.010Z,67.00
2024-05-09T08:55:43.001Z,63.60
2024-05-09T08:58:17.914Z,65.20
2024-05-09T09:00:47.478Z,66.00
2024-05-09T09:03:27.861Z,65.00
2024-05-09T09:06:01.460Z,62.00
2024-05-09T09:08:28.358Z,60.50
2024-05-09T09:10:58.711Z,64.50
2024-05-09T09:13:28.014Z,64.00
2024-05-09T09:16:01.068Z,62.50
2024-05-09T09:18:29.161Z,65.40
2024-05-09T09:20:58.881Z,60.60
2024-05-09T09:23:29.811Z,65.60
2024-05-09T09:26:00.356Z,60.50
2024-05-09T09:28:26.952Z,65.40
2024-05-09T09:30:53.536Z,67.80
2024-05-09T09:33:25.043Z,62.50
2024-05-09T09:35:51.846Z,64.50
2024-05-09T09:38:23.267Z,65.80
2024-05-09T09:40:50.770Z,66.00
2024-05-09T09:43:23.756Z,66.00
2024-05-09T09:45:53.155Z,67.00
2024-05-09T09:48:23.605Z,64.75
2024-05-09T09:50:57.121Z,66.50
2024-05-09T09:53:26.723Z,63.25
2024-05-09T09:55:54.545Z,64.40
2024-05-09T09:58:22.446Z,66.80
2024-05-09T10:00:54.108Z,60.40
2024-05-09T10:03:23.167Z,64.20
2024-05-09T10:05:50.166Z,60.50
2024-05-09T10:08:19.850Z,58.00
2024-05-09T10:10:47.724Z,74.80
2024-05-09T10:13:16.896Z,59.00
2024-05-09T10:15:50.685Z,63.20
2024-05-09T10:18:22.611Z,63.25
2024-05-09T10:20:52.795Z,66.20
2024-05-09T10:23:36.260Z,66.00
2024-05-09T10:26:06.315Z,63.20
2024-05-09T10:28:38.602Z,65.80
2024-05-09T10:31:09.149Z,66.00
2024-05-09T10:33:47.488Z,65.00
2024-05-09T10:36:18.620Z,65.40
2024-05-09T10:38:45.270Z,64.40
2024-05-09T10:41:16.098Z,66.25
2024-05-09T10:43:43.120Z,66.50
2024-05-09T10:46:12.556Z,67.00
2024-05-09T10:48:42.807Z,63.00
2024-05-09T10:51:09.831Z,60.00
2024-05-09T10:53:47.815Z,62.50
2024-05-09T10:56:15.198Z,64.00
2024-05-09T10:58:41.882Z,63.00
2024-05-09T11:01:09.824Z,59.75
2024-05-09T11:03:39.940Z,65.00
2024-05-09T11:06:11.268Z,64.00
2024-05-09T11:08:41.328Z,64.75
2024-05-09T11:11:10.804Z,63.25
2024-05-09T11:13:39.300Z,67.00
2024-05-09T11:16:15.809Z,65.00
2024-05-09T11:18:52.664Z,62.00
2024-05-09T11:21:21.892Z,61.50
2024-05-09T11:23:48.779Z,61.00
2024-05-09T11:26:25.025Z,60.40
2024-05-09T11:28:54.143Z,66.00
2024-05-09T11:31:23.357Z,63.25
2024-05-09T11:33:54.666Z,65.25
2024-05-09T11:36:21.359Z,63.75
2024-05-09T11:38:50.049Z,64.00
2024-05-09T11:41:19.246Z,67.00
2024-05-09T11:43:45.853Z,63.75
2024-05-09T11:46:12.733Z,64.00
2024-05-09T11:48:42.013Z,66.00
2024-05-09T11:51:11.169Z,65.25
2024-05-09T11:53:37.756Z,65.50
2024-05-09T11:56:04.642Z,66.25
2024-05-09T11:58:34.753Z,63.00
2024-05-09T12:01:04.452Z,63.00
2024-05-09T12:03:31.520Z,66.25
2024-05-09T12:06:01.023Z,66.50
2024-05-09T12:08:30.356Z,61.00
2024-05-09T12:10:57.378Z,64.50
2024-05-09T12:13:28.849Z,65.00
2024-05-09T12:15:55.477Z,67.00
2024-05-09T12:18:25.783Z,67.00
2024-05-09T12:20:54.761Z,67.00
2024-05-09T12:23:21.289Z,67.50
2024-05-09T12:25:50.156Z,64.00
2024-05-09T12:28:19.084Z,67.20
2024-05-09T12:30:45.747Z,67.00
2024-05-09T12:33:13.795Z,64.75
2024-05-09T12:35:44.004Z,69.20
2024-05-09T12:38:13.698Z,69.20
2024-05-09T12:40:45.183Z,66.00
2024-05-09T12:43:16.645Z,65.00
2024-05-09T12:45:43.326Z,68.00
2024-05-09T12:48:12.352Z,63.75
2024-05-09T12:50:40.143Z,66.00
2024-05-09T12:53:11.636Z,69.00
2024-05-09T12:55:45.024Z,69.20
2024-05-09T12:58:22.987Z,63.00
2024-05-09T13:00:51.339Z,68.50
2024-05-09T13:03:18.213Z,66.00
2024-05-09T13:05:45.770Z,68.50
2024-05-09T13:08:13.508Z,63.75
2024-05-09T13:10:40.219Z,63.40
2024-05-09T13:13:09.184Z,65.50
2024-05-09T13:15:36.986Z,66.60
2024-05-09T13:18:06.598Z,62.00
2024-05-09T13:20:38.107Z,61.00
2024-05-09T13:23:07.240Z,67.80
2024-05-09T13:25:37.858Z,66.00
2024-05-09T13:28:08.123Z,66.00
2024-05-09T13:30:40.120Z,67.00
2024-05-09T13:33:11.250Z,62.50
2024-05-09T13:35:39.512Z,64.00
2024-05-09T13:38:06.820Z,68.80
2024-05-09T13:40:36.657Z,68.50
2024-05-09T13:43:06.975Z,62.00
2024-05-09T13:45:34.239Z,65.00
2024-05-09T13:48:04.110Z,69.50
2024-05-09T13:50:36.079Z,66.00
2024-05-09T13:53:09.542Z,65.75
2024-05-09T13:55:38.509Z,71.00
2024-05-09T13:58:05.911Z,66.50
2024-05-09T14:00:43.666Z,65.50
2024-05-09T14:03:15.691Z,67.00
2024-05-09T14:05:49.364Z,66.00
2024-05-09T14:08:18.685Z,66.50
2024-05-09T14:10:46.920Z,69.20
2024-05-09T14:13:14.165Z,67.40
2024-05-09T14:15:43.390Z,69.50
2024-05-09T14:18:13.165Z,69.25
2024-05-09T14:20:41.131Z,69.00
2024-05-09T14:23:07.740Z,68.75
2024-05-09T14:25:38.707Z,68.00
2024-05-09T14:28:10.546Z,67.00
2024-05-09T14:30:39.956Z,69.80
2024-05-09T14:33:08.016Z,75.20
2024-05-09T14:35:38.671Z,67.00
2024-05-09T14:38:07.339Z,70.50
2024-05-09T14:40:40.988Z,70.00
2024-05-09T14:43:15.079Z,66.50
2024-05-09T14:45:45.195Z,67.00
2024-05-09T14:48:17.725Z,67.40
2024-05-09T14:50:44.394Z,67.50
2024-05-09T14:53:12.191Z,65.00
2024-05-09T14:55:42.799Z,68.60
2024-05-09T14:58:13.675Z,68.20
2024-05-09T15:00:46.312Z,67.00
2024-05-09T15:03:20.118Z,64.00
2024-05-09T15:05:50.327Z,64.00
2024-05-09T15:08:22.852Z,66.50
2024-05-09T15:10:52.123Z,67.00
2024-05-09T15:13:20.490Z,66.00
2024-05-09T15:15:49.602Z,67.50
2024-05-09T15:18:16.784Z,68.00
2024-05-09T15:20:46.133Z,66.75
2024-05-09T15:23:13.219Z,67.20
2024-05-09T15:25:40.326Z,65.40
2024-05-09T15:28:09.433Z,66.80
2024-05-09T15:30:45.375Z,66.80
2024-05-09T15:33:13.408Z,65.00
2024-05-09T15:35:41.608Z,66.80
2024-05-09T15:38:09.471Z,66.80
2024-05-09T15:40:39.878Z,67.00
2024-05-09T15:43:12.905Z,70.80
2024-05-09T15:45:40.934Z,66.00
2024-05-09T15:48:08.908Z,66.50
2024-05-09T15:50:41.006Z,64.40
2024-05-09T15:53:13.125Z,63.75
2024-05-09T15:55:43.150Z,68.20
2024-05-09T15:58:10.448Z,64.50
2024-05-09T16:00:42.331Z,66.75
2024-05-09T16:03:14.511Z,68.40
2024-05-09T16:05:48.006Z,69.60
2024-05-09T16:08:15.623Z,67.80
2024-05-09T16:10:44.654Z,68.00
2024-05-09T16:13:17.895Z,67.00
2024-05-09T16:15:45.266Z,68.00
2024-05-09T16:18:14.995Z,67.40
2024-05-09T16:20:45.648Z,66.25
2024-05-09T16:23:14.258Z,69.80
2024-05-09T16:25:46.160Z,66.00
2024-05-09T16:28:16.476Z,65.50
2024-05-09T16:30:45.531Z,65.20
2024-05-09T16:33:12.426Z,65.00
2024-05-09T16:35:41.561Z,62.20
2024-05-09T16:38:08.299Z,61.80
2024-05-09T16:40:40.594Z,68.20
2024-05-09T16:43:14.780Z,64.00
2024-05-09T16:45:44.609Z,61.75
2024-05-09T16:48:14.551Z,65.60
2024-05-09T16:50:41.978Z,66.25
2024-05-09T16:53:12.052Z,66.00
2024-05-09T16:55:40.967Z,66.80
2024-05-09T16:58:12.271Z,66.40
2024-05-09T17:00:43.566Z,66.00
2024-05-09T17:03:14.137Z,62.00
2024-05-09T17:05:45.692Z,69.60
2024-05-09T17:08:18.063Z,67.00
2024-05-09T17:10:50.821Z,65.00
2024-05-09T17:13:21.019Z,67.00
2024-05-09T17:15:48.605Z,68.40
2024-05-09T17:18:17.838Z,66.50
2024-05-09T17:20:44.459Z,70.60
2024-05-09T17:23:14.437Z,65.50
2024-05-09T17:25:41.634Z,66.75
2024-05-09T17:28:09.325Z,63.20
2024-05-09T17:30:38.623Z,67.00
2024-05-09T17:33:08.938Z,66.20
2024-05-09T17:35:36.757Z,68.00
2024-05-09T17:38:04.998Z,66.75
2024-05-09T17:40:38.168Z,67.80
2024-05-09T17:43:08.438Z,67.60
2024-05-09T17:45:42.359Z,69.20
2024-05-09T17:48:10.359Z,67.40
2024-05-09T17:50:38.369Z,69.25
2024-05-09T17:53:07.954Z,66.00
2024-05-09T17:55:35.351Z,69.60
2024-05-09T17:58:02.670Z,67.50
2024-05-09T18:00:38.348Z,65.00
2024-05-09T18:03:14.482Z,63.75
2024-05-09T18:05:42.720Z,67.50
2024-05-09T18:08:10.358Z,68.60
2024-05-09T18:10:39.688Z,66.75
2024-05-09T18:13:11.383Z,66.00
2024-05-09T18:15:40.894Z,64.60
2024-05-09T18:18:10.839Z,64.00
2024-05-09T18:20:43.662Z,62.80
2024-05-09T18:23:17.487Z,64.60
2024-05-09T18:25:54.388Z,69.00
2024-05-09T18:28:21.396Z,63.00
2024-05-09T18:30:48.176Z,63.00
2024-05-09T18:33:15.063Z,63.40
2024-05-09T18:35:43.425Z,66.00
2024-05-09T18:38:10.230Z,66.40
2024-05-09T18:40:41.037Z,66.00
2024-05-09T18:43:09.571Z,62.60
2024-05-09T18:45:39.864Z,64.40
2024-05-09T18:48:09.088Z,63.80
2024-05-09T18:50:40.564Z,65.80
2024-05-09T18:53:12.732Z,65.00
2024-05-09T18:55:43.638Z,68.40
2024-05-09T18:58:17.113Z,65.40
2024-05-09T19:00:46.041Z,63.20
2024-05-09T19:03:17.599Z,63.60
2024-05-09T19:05:45.944Z,64.20
2024-05-09T19:08:15.792Z,66.20
2024-05-09T19:10:42.630Z,61.20
2024-05-09T19:13:12.429Z,59.40
2024-05-09T19:15:41.732Z,67.00
2024-05-09T19:18:12.058Z,62.00
2024-05-09T19:20:39.479Z,60.60
2024-05-09T19:23:07.168Z,64.00
2024-05-09T19:25:36.784Z,60.20
2024-05-09T19:28:06.730Z,69.20
2024-05-09T19:30:40.359Z,61.80
2024-05-09T19:33:15.149Z,63.40
2024-05-09T19:35:42.592Z,63.20
2024-05-09T19:38:11.685Z,61.00
2024-05-09T19:40:38.339Z,58.80
2024-05-09T19:43:06.158Z,63.20
2024-05-09T19:45:36.493Z,59.20
2024-05-09T19:48:04.698Z,60.40
2024-05-09T19:50:41.143Z,63.20
2024-05-09T19:53:13.406Z,69.20
2024-05-09T19:55:40.721Z,64.40
2024-05-09T19:58:08.713Z,54.60
2024-05-09T20:00:42.473Z,51.20
2024-05-09T20:03:12.303Z,56.20
2024-05-09T20:05:41.513Z,59.60
2024-05-09T20:08:10.825Z,54.40
2024-05-09T20:10:37.655Z,56.60
2024-05-09T20:13:06.870Z,66.20
2024-05-09T20:15:35.738Z,58.80
2024-05-09T20:18:05.772Z,59.20
2024-05-09T20:20:39.231Z,57.00
2024-05-09T20:23:10.950Z,54.20
2024-05-09T20:25:39.899Z,55.20
2024-05-09T20:28:09.776Z,64.40
2024-05-09T20:30:36.822Z,59.00
2024-05-09T20:33:05.924Z,60.80
2024-05-09T20:35:35.953Z,54.00
2024-05-09T20:38:03.673Z,51.20
2024-05-09T20:40:35.127Z,66.20
2024-05-09T20:43:10.351Z,52.40
2024-05-09T20:45:40.230Z,59.80
2024-05-09T20:48:08.559Z,59.00
2024-05-09T20:50:39.748Z,55.40
2024-05-09T20:53:09.931Z,55.40
2024-05-09T20:55:36.743Z,57.40
2024-05-09T20:58:03.387Z,55.20
2024-05-09T21:00:39.789Z,62.20
2024-05-09T21:03:10.148Z,58.40
2024-05-09T21:05:37.069Z,55.00
2024-05-09T21:08:06.101Z,56.40
2024-05-09T21:10:34.049Z,61.60
2024-05-09T21:13:04.477Z,57.60
2024-05-09T21:15:32.063Z,57.80
2024-05-09T21:17:59.106Z,50.60
2024-05-09T21:20:31.167Z,54.00
2024-05-09T21:22:59.403Z,68.40
2024-05-09T21:25:26.068Z,57.00
2024-05-09T21:27:55.029Z,58.60
2024-05-09T21:30:32.187Z,57.00
2024-05-09T21:33:08.955Z,57.20
2024-05-09T21:35:39.192Z,54.60
2024-05-09T21:38:08.216Z,53.80
2024-05-09T21:40:37.888Z,62.40
2024-05-09T21:43:06.485Z,51.40
2024-05-09T21:45:34.422Z,57.00
2024-05-09T21:48:03.675Z,54.40
2024-05-09T21:50:37.034Z,54.80
2024-05-09T21:53:07.595Z,56.40
2024-05-09T21:55:34.428Z,50.60
2024-05-09T21:58:03.801Z,59.60
2024-05-09T22:00:36.344Z,52.00
2024-05-09T22:03:06.530Z,55.80
2024-05-09T22:05:33.636Z,55.80
2024-05-09T22:08:03.027Z,70.40
2024-05-09T22:10:34.651Z,52.60
2024-05-09T22:13:06.760Z,50.80
2024-05-09T22:15:38.632Z,45.20
2024-05-09T22:18:09.964Z,51.00
2024-05-09T22:20:43.267Z,51.00
2024-05-09T22:23:11.455Z,57.60
2024-05-09T22:25:39.144Z,59.20
2024-05-09T22:28:08.754Z,51.80
2024-05-09T22:30:38.769Z,51.00
2024-05-09T22:33:11.587Z,55.20
2024-05-09T22:35:39.618Z,50.60
2024-05-09T22:38:06.555Z,57.60
2024-05-09T22:40:42.762Z,58.00
2024-05-09T22:43:17.940Z,54.00
2024-05-09T22:45:47.218Z,60.40
2024-05-09T22:48:16.326Z,51.40
2024-05-09T22:50:45.213Z,54.80
2024-05-09T22:53:14.066Z,56.80
2024-05-09T22:55:40.818Z,50.40
2024-05-09T22:58:09.999Z,50.20
2024-05-09T23:00:38.975Z,56.00
2024-05-09T23:03:06.118Z,50.60
2024-05-09T23:05:35.304Z,63.00
2024-05-09T23:08:02.359Z,52.60
2024-05-09T23:10:35.587Z,59.80
2024-05-09T23:13:04.498Z,49.60
2024-05-09T23:15:31.321Z,51.80
2024-05-09T23:18:02.840Z,51.40
2024-05-09T23:20:37.438Z,49.00
2024-05-09T23:23:10.768Z,51.00
2024-05-09T23:25:38.834Z,51.80
2024-05-09T23:28:06.164Z,61.20
2024-05-09T23:30:38.942Z,51.20
2024-05-09T23:33:09.303Z,55.00
2024-05-09T23:35:36.106Z,50.40
2024-05-09T23:38:02.980Z,52.00
2024-05-09T23:40:38.144Z,51.20
2024-05-09T23:43:08.230Z,49.00
2024-05-09T23:45:35.247Z,47.80
2024-05-09T23:48:02.664Z,54.60
2024-05-09T23:50:34.834Z,61.60
2024-05-09T23:53:05.079Z,52.00
2024-05-09T23:55:32.489Z,45.00
2024-05-09T23:57:59.590Z,49.80
